sensor_id;sensor_type;location;lat;lon;timestamp;pressure;altitude;pressure_sealevel;temperature;humidity
58757;BME280;44527;47.460;19.016;2022-07-23T00:01:16;100163.31;;;24.73;50.84
58757;BME280;44527;47.460;19.016;2022-07-23T00:04:29;100164.62;;;24.84;50.58
58757;BME280;44527;47.460;19.016;2022-07-23T00:07:31;100157.62;;;24.89;50.25
58757;BME280;44527;47.460;19.016;2022-07-23T00:10:34;100163.59;;;24.91;50.03
58757;BME280;44527;47.460;19.016;2022-07-23T00:13:36;100163.78;;;24.83;50.22
58757;BME280;44527;47.460;19.016;2022-07-23T00:16:38;100156.50;;;24.70;50.76
58757;BME280;44527;47.460;19.016;2022-07-23T00:19:41;100162.84;;;24.63;51.07
58757;BME280;44527;47.460;19.016;2022-07-23T00:22:51;100160.59;;;24.66;50.98
58757;BME280;44527;47.460;19.016;2022-07-23T00:25:55;100158.69;;;24.60;51.13
58757;BME280;44527;47.460;19.016;2022-07-23T00:28:57;100159.44;;;24.82;50.92
58757;BME280;44527;47.460;19.016;2022-07-23T00:32:00;100161.16;;;24.55;51.77
58757;BME280;44527;47.460;19.016;2022-07-23T00:35:03;100157.09;;;24.38;52.41
58757;BME280;44527;47.460;19.016;2022-07-23T00:38:05;100166.16;;;24.37;52.39
58757;BME280;44527;47.460;19.016;2022-07-23T00:41:07;100164.25;;;24.30;52.38
58757;BME280;44527;47.460;19.016;2022-07-23T00:47:21;100168.38;;;24.33;52.30
58757;BME280;44527;47.460;19.016;2022-07-23T00:50:24;100177.47;;;24.32;52.25
58757;BME280;44527;47.460;19.016;2022-07-23T00:53:27;100183.88;;;24.31;52.48
58757;BME280;44527;47.460;19.016;2022-07-23T00:56:30;100172.53;;;24.07;53.24
58757;BME280;44527;47.460;19.016;2022-07-23T00:59:33;100170.62;;;24.01;53.57
58757;BME280;44527;47.460;19.016;2022-07-23T01:02:35;100184.03;;;24.01;53.49
58757;BME280;44527;47.460;19.016;2022-07-23T01:05:38;100176.56;;;23.97;53.77
58757;BME280;44527;47.460;19.016;2022-07-23T01:08:41;100173.19;;;23.88;53.88
58757;BME280;44527;47.460;19.016;2022-07-23T01:11:44;100172.75;;;23.84;54.39
58757;BME280;44527;47.460;19.016;2022-07-23T01:14:57;100165.87;;;23.75;54.52
58757;BME280;44527;47.460;19.016;2022-07-23T01:18:01;100183.97;;;23.73;54.29
58757;BME280;44527;47.460;19.016;2022-07-23T01:21:03;100182.41;;;23.64;54.59
58757;BME280;44527;47.460;19.016;2022-07-23T01:24:07;100177.88;;;23.65;54.49
58757;BME280;44527;47.460;19.016;2022-07-23T01:27:11;100172.81;;;23.55;54.76
58757;BME280;44527;47.460;19.016;2022-07-23T01:30:15;100169.16;;;23.41;55.19
58757;BME280;44527;47.460;19.016;2022-07-23T01:33:17;100168.53;;;23.39;55.36
58757;BME280;44527;47.460;19.016;2022-07-23T01:36:20;100163.34;;;23.37;55.40
58757;BME280;44527;47.460;19.016;2022-07-23T01:39:22;100164.19;;;23.38;55.14
58757;BME280;44527;47.460;19.016;2022-07-23T01:42:25;100160.31;;;23.40;55.21
58757;BME280;44527;47.460;19.016;2022-07-23T01:45:27;100154.44;;;23.30;55.48
58757;BME280;44527;47.460;19.016;2022-07-23T01:48:30;100166.72;;;23.25;55.83
58757;BME280;44527;47.460;19.016;2022-07-23T01:51:34;100167.84;;;23.15;56.27
58757;BME280;44527;47.460;19.016;2022-07-23T01:54:38;100160.53;;;23.24;56.13
58757;BME280;44527;47.460;19.016;2022-07-23T01:57:41;100157.88;;;23.09;56.42
58757;BME280;44527;47.460;19.016;2022-07-23T02:00:44;100158.91;;;23.08;56.44
58757;BME280;44527;47.460;19.016;2022-07-23T02:03:47;100158.06;;;23.08;56.32
58757;BME280;44527;47.460;19.016;2022-07-23T02:06:49;100161.66;;;23.15;55.61
58757;BME280;44527;47.460;19.016;2022-07-23T02:09:52;100164.62;;;23.05;55.56
58757;BME280;44527;47.460;19.016;2022-07-23T02:12:54;100156.47;;;23.13;55.16
58757;BME280;44527;47.460;19.016;2022-07-23T02:15:57;100160.56;;;23.09;54.86
58757;BME280;44527;47.460;19.016;2022-07-23T02:18:59;100168.50;;;22.88;55.62
58757;BME280;44527;47.460;19.016;2022-07-23T02:22:04;100173.41;;;22.99;55.40
58757;BME280;44527;47.460;19.016;2022-07-23T02:25:07;100178.56;;;23.01;55.46
58757;BME280;44527;47.460;19.016;2022-07-23T02:28:10;100165.44;;;22.91;55.84
58757;BME280;44527;47.460;19.016;2022-07-23T02:31:15;100166.34;;;22.83;56.24
58757;BME280;44527;47.460;19.016;2022-07-23T02:34:18;100170.72;;;22.84;56.13
58757;BME280;44527;47.460;19.016;2022-07-23T02:37:20;100170.97;;;22.89;55.62
58757;BME280;44527;47.460;19.016;2022-07-23T02:40:23;100163.13;;;22.88;55.66
58757;BME280;44527;47.460;19.016;2022-07-23T02:43:25;100171.81;;;22.90;55.89
58757;BME280;44527;47.460;19.016;2022-07-23T02:46:28;100169.97;;;22.90;55.74
58757;BME280;44527;47.460;19.016;2022-07-23T02:49:31;100167.28;;;22.90;56.14
58757;BME280;44527;47.460;19.016;2022-07-23T02:52:33;100174.88;;;22.87;56.22
58757;BME280;44527;47.460;19.016;2022-07-23T02:55:36;100171.34;;;22.86;56.27
58757;BME280;44527;47.460;19.016;2022-07-23T02:58:39;100160.25;;;22.89;56.49
58757;BME280;44527;47.460;19.016;2022-07-23T03:01:41;100165.00;;;22.87;56.62
58757;BME280;44527;47.460;19.016;2022-07-23T03:04:44;100159.56;;;22.81;56.52
58757;BME280;44527;47.460;19.016;2022-07-23T03:07:46;100163.69;;;22.54;57.02
58757;BME280;44527;47.460;19.016;2022-07-23T03:10:49;100167.56;;;22.66;56.22
58757;BME280;44527;47.460;19.016;2022-07-23T03:13:51;100170.25;;;22.66;56.28
58757;BME280;44527;47.460;19.016;2022-07-23T03:16:55;100176.88;;;22.70;55.98
58757;BME280;44527;47.460;19.016;2022-07-23T03:19:57;100168.69;;;22.71;55.63
58757;BME280;44527;47.460;19.016;2022-07-23T03:22:59;100172.06;;;22.80;55.03
58757;BME280;44527;47.460;19.016;2022-07-23T03:26:02;100173.31;;;22.78;55.49
58757;BME280;44527;47.460;19.016;2022-07-23T03:29:05;100171.25;;;22.80;55.00
58757;BME280;44527;47.460;19.016;2022-07-23T03:32:07;100177.44;;;22.80;54.96
58757;BME280;44527;47.460;19.016;2022-07-23T03:35:10;100174.12;;;22.93;54.72
58757;BME280;44527;47.460;19.016;2022-07-23T03:38:15;100164.62;;;23.05;54.67
58757;BME280;44527;47.460;19.016;2022-07-23T03:41:19;100164.22;;;23.23;54.38
58757;BME280;44527;47.460;19.016;2022-07-23T03:44:21;100164.84;;;23.40;54.11
58757;BME280;44527;47.460;19.016;2022-07-23T03:47:24;100163.56;;;23.36;54.66
58757;BME280;44527;47.460;19.016;2022-07-23T03:50:26;100172.00;;;23.18;55.09
58757;BME280;44527;47.460;19.016;2022-07-23T03:53:28;100171.28;;;23.09;55.07
58757;BME280;44527;47.460;19.016;2022-07-23T03:56:31;100169.69;;;23.15;54.87
58757;BME280;44527;47.460;19.016;2022-07-23T03:59:34;100164.19;;;23.38;54.29
58757;BME280;44527;47.460;19.016;2022-07-23T04:02:37;100165.63;;;23.55;53.88
58757;BME280;44527;47.460;19.016;2022-07-23T04:05:40;100170.03;;;23.63;53.81
58757;BME280;44527;47.460;19.016;2022-07-23T04:08:42;100174.16;;;23.66;53.23
58757;BME280;44527;47.460;19.016;2022-07-23T04:11:44;100172.44;;;23.94;52.55
58757;BME280;44527;47.460;19.016;2022-07-23T04:14:47;100172.41;;;24.16;51.63
58757;BME280;44527;47.460;19.016;2022-07-23T04:17:49;100179.47;;;24.23;51.03
58757;BME280;44527;47.460;19.016;2022-07-23T04:20:52;100176.63;;;24.31;50.66
58757;BME280;44527;47.460;19.016;2022-07-23T04:23:55;100190.44;;;24.50;50.53
58757;BME280;44527;47.460;19.016;2022-07-23T04:26:58;100183.44;;;24.56;50.64
58757;BME280;44527;47.460;19.016;2022-07-23T04:30:00;100185.38;;;24.68;50.37
58757;BME280;44527;47.460;19.016;2022-07-23T04:33:03;100187.91;;;24.76;50.66
58757;BME280;44527;47.460;19.016;2022-07-23T04:36:10;100181.94;;;24.81;50.88
58757;BME280;44527;47.460;19.016;2022-07-23T04:39:12;100183.19;;;24.85;50.81
58757;BME280;44527;47.460;19.016;2022-07-23T04:42:15;100188.16;;;25.16;50.04
58757;BME280;44527;47.460;19.016;2022-07-23T04:45:18;100185.19;;;25.66;48.81
58757;BME280;44527;47.460;19.016;2022-07-23T04:48:22;100195.59;;;26.62;46.40
58757;BME280;44527;47.460;19.016;2022-07-23T04:51:27;100201.06;;;27.20;44.91
58757;BME280;44527;47.460;19.016;2022-07-23T04:54:31;100194.62;;;27.60;43.81
58757;BME280;44527;47.460;19.016;2022-07-23T04:57:33;100200.66;;;28.50;41.78
58757;BME280;44527;47.460;19.016;2022-07-23T05:00:36;100202.69;;;29.77;39.11
58757;BME280;44527;47.460;19.016;2022-07-23T05:03:38;100206.19;;;31.13;36.02
58757;BME280;44527;47.460;19.016;2022-07-23T05:06:41;100203.53;;;32.94;32.92
58757;BME280;44527;47.460;19.016;2022-07-23T05:09:43;100208.19;;;34.56;30.54
58757;BME280;44527;47.460;19.016;2022-07-23T05:12:45;100208.94;;;35.98;28.01
58757;BME280;44527;47.460;19.016;2022-07-23T05:15:48;100206.13;;;36.79;26.69
58757;BME280;44527;47.460;19.016;2022-07-23T05:18:51;100206.34;;;37.92;24.78
58757;BME280;44527;47.460;19.016;2022-07-23T05:21:53;100208.94;;;38.66;23.82
58757;BME280;44527;47.460;19.016;2022-07-23T05:24:56;100210.41;;;39.49;22.64
58757;BME280;44527;47.460;19.016;2022-07-23T05:27:58;100207.19;;;39.80;22.46
58757;BME280;44527;47.460;19.016;2022-07-23T05:31:01;100211.03;;;39.22;23.08
58757;BME280;44527;47.460;19.016;2022-07-23T05:34:04;100211.88;;;39.42;23.00
58757;BME280;44527;47.460;19.016;2022-07-23T05:37:07;100223.63;;;39.99;22.86
58757;BME280;44527;47.460;19.016;2022-07-23T05:40:10;100213.78;;;40.58;21.90
58757;BME280;44527;47.460;19.016;2022-07-23T05:43:13;100220.78;;;40.23;22.41
58757;BME280;44527;47.460;19.016;2022-07-23T05:46:16;100215.72;;;40.11;22.57
58757;BME280;44527;47.460;19.016;2022-07-23T05:49:20;100216.75;;;40.89;22.04
58757;BME280;44527;47.460;19.016;2022-07-23T05:52:24;100214.06;;;41.76;21.23
58757;BME280;44527;47.460;19.016;2022-07-23T05:55:27;100215.31;;;41.92;20.67
58757;BME280;44527;47.460;19.016;2022-07-23T05:58:31;100217.38;;;42.32;20.61
58757;BME280;44527;47.460;19.016;2022-07-23T06:01:33;100208.00;;;42.41;20.92
58757;BME280;44527;47.460;19.016;2022-07-23T06:04:36;100217.19;;;41.83;20.95
58757;BME280;44527;47.460;19.016;2022-07-23T06:07:43;100212.50;;;43.17;19.50
58757;BME280;44527;47.460;19.016;2022-07-23T06:10:47;100214.75;;;43.50;17.95
58757;BME280;44527;47.460;19.016;2022-07-23T06:13:50;100209.31;;;44.79;15.13
58757;BME280;44527;47.460;19.016;2022-07-23T06:16:53;100202.94;;;45.71;14.46
58757;BME280;44527;47.460;19.016;2022-07-23T06:19:56;100199.06;;;45.84;14.03
58757;BME280;44527;47.460;19.016;2022-07-23T06:22:58;100202.91;;;45.92;14.32
58757;BME280;44527;47.460;19.016;2022-07-23T06:26:04;100198.50;;;46.61;13.52
58757;BME280;44527;47.460;19.016;2022-07-23T06:29:06;100197.22;;;47.07;13.48
58757;BME280;44527;47.460;19.016;2022-07-23T06:32:09;100192.47;;;47.08;13.40
58757;BME280;44527;47.460;19.016;2022-07-23T06:35:12;100193.09;;;47.70;12.57
58757;BME280;44527;47.460;19.016;2022-07-23T06:38:14;100202.81;;;47.76;12.39
58757;BME280;44527;47.460;19.016;2022-07-23T06:41:17;100204.72;;;48.03;12.50
58757;BME280;44527;47.460;19.016;2022-07-23T06:44:20;100200.38;;;47.90;12.37
58757;BME280;44527;47.460;19.016;2022-07-23T06:47:22;100198.25;;;48.78;11.73
58757;BME280;44527;47.460;19.016;2022-07-23T06:50:26;100195.91;;;48.81;11.84
58757;BME280;44527;47.460;19.016;2022-07-23T06:53:28;100195.03;;;49.31;11.79
58757;BME280;44527;47.460;19.016;2022-07-23T06:56:30;100195.19;;;48.84;11.75
58757;BME280;44527;47.460;19.016;2022-07-23T06:59:34;100197.56;;;48.66;12.39
58757;BME280;44527;47.460;19.016;2022-07-23T07:02:38;100205.81;;;50.14;11.16
58757;BME280;44527;47.460;19.016;2022-07-23T07:05:41;100198.69;;;50.40;10.89
58757;BME280;44527;47.460;19.016;2022-07-23T07:08:43;100201.78;;;51.14;10.27
58757;BME280;44527;47.460;19.016;2022-07-23T07:11:46;100194.66;;;49.52;11.31
58757;BME280;44527;47.460;19.016;2022-07-23T07:14:48;100192.66;;;50.38;10.70
58757;BME280;44527;47.460;19.016;2022-07-23T07:17:51;100187.97;;;49.76;11.03
58757;BME280;44527;47.460;19.016;2022-07-23T07:20:53;100179.50;;;50.61;10.37
58757;BME280;44527;47.460;19.016;2022-07-23T07:23:58;100177.28;;;50.01;11.05
58757;BME280;44527;47.460;19.016;2022-07-23T07:27:00;100173.22;;;50.45;10.80
58757;BME280;44527;47.460;19.016;2022-07-23T07:30:04;100172.44;;;50.97;10.50
58757;BME280;44527;47.460;19.016;2022-07-23T07:33:06;100178.38;;;51.26;10.37
58757;BME280;44527;47.460;19.016;2022-07-23T07:36:09;100176.41;;;50.43;10.96
58757;BME280;44527;47.460;19.016;2022-07-23T07:39:14;100175.87;;;51.17;10.40
58757;BME280;44527;47.460;19.016;2022-07-23T07:42:16;100176.03;;;50.98;10.40
58757;BME280;44527;47.460;19.016;2022-07-23T07:45:23;100176.50;;;50.50;10.89
58757;BME280;44527;47.460;19.016;2022-07-23T07:48:27;100165.53;;;50.38;10.70
58757;BME280;44527;47.460;19.016;2022-07-23T07:51:29;100173.72;;;50.50;10.66
58757;BME280;44527;47.460;19.016;2022-07-23T07:54:32;100169.47;;;49.87;10.91
58757;BME280;44527;47.460;19.016;2022-07-23T07:57:35;100169.41;;;49.84;10.97
58757;BME280;44527;47.460;19.016;2022-07-23T08:00:38;100164.97;;;48.50;12.06
58757;BME280;44527;47.460;19.016;2022-07-23T08:03:41;100155.47;;;47.88;12.33
58757;BME280;44527;47.460;19.016;2022-07-23T08:06:45;100157.78;;;47.30;12.55
58757;BME280;44527;47.460;19.016;2022-07-23T08:09:48;100155.50;;;46.42;13.79
58757;BME280;44527;47.460;19.016;2022-07-23T08:12:54;100161.25;;;45.46;14.14
58757;BME280;44527;47.460;19.016;2022-07-23T08:15:59;100160.19;;;44.20;15.19
58757;BME280;44527;47.460;19.016;2022-07-23T08:19:02;100156.78;;;44.23;15.58
58757;BME280;44527;47.460;19.016;2022-07-23T08:22:04;100151.72;;;43.34;16.48
58757;BME280;44527;47.460;19.016;2022-07-23T08:25:07;100147.28;;;42.90;16.64
58757;BME280;44527;47.460;19.016;2022-07-23T08:28:11;100151.78;;;42.29;17.40
58757;BME280;44527;47.460;19.016;2022-07-23T08:31:14;100152.34;;;41.63;17.55
58757;BME280;44527;47.460;19.016;2022-07-23T08:34:18;100143.28;;;41.04;18.58
58757;BME280;44527;47.460;19.016;2022-07-23T08:37:21;100135.66;;;40.73;18.95
58757;BME280;44527;47.460;19.016;2022-07-23T08:40:26;100139.03;;;40.70;19.15
58757;BME280;44527;47.460;19.016;2022-07-23T08:43:30;100142.53;;;40.02;19.22
58757;BME280;44527;47.460;19.016;2022-07-23T08:46:33;100141.06;;;39.39;19.80
58757;BME280;44527;47.460;19.016;2022-07-23T08:49:43;100137.12;;;39.45;20.13
58757;BME280;44527;47.460;19.016;2022-07-23T08:52:52;100137.66;;;39.28;20.15
58757;BME280;44527;47.460;19.016;2022-07-23T08:55:56;100131.09;;;38.86;20.16
58757;BME280;44527;47.460;19.016;2022-07-23T08:58:59;100129.78;;;38.78;20.50
58757;BME280;44527;47.460;19.016;2022-07-23T09:02:01;100132.44;;;38.89;20.16
58757;BME280;44527;47.460;19.016;2022-07-23T09:05:04;100127.84;;;38.84;20.80
58757;BME280;44527;47.460;19.016;2022-07-23T09:11:15;100126.75;;;38.61;20.92
58757;BME280;44527;47.460;19.016;2022-07-23T09:14:42;100115.25;;;38.78;21.01
58757;BME280;44527;47.460;19.016;2022-07-23T09:17:45;100112.31;;;38.74;21.00
58757;BME280;44527;47.460;19.016;2022-07-23T09:20:47;100118.41;;;38.90;20.81
58757;BME280;44527;47.460;19.016;2022-07-23T09:23:58;100125.31;;;38.88;21.11
58757;BME280;44527;47.460;19.016;2022-07-23T09:27:03;100122.94;;;39.00;20.58
58757;BME280;44527;47.460;19.016;2022-07-23T09:30:06;100118.69;;;39.32;20.13
58757;BME280;44527;47.460;19.016;2022-07-23T09:33:14;100125.44;;;39.72;19.55
58757;BME280;44527;47.460;19.016;2022-07-23T09:36:29;100121.50;;;39.78;19.53
58757;BME280;44527;47.460;19.016;2022-07-23T09:39:33;100119.19;;;39.85;19.32
58757;BME280;44527;47.460;19.016;2022-07-23T09:42:35;100120.97;;;39.76;19.29
58757;BME280;44527;47.460;19.016;2022-07-23T09:45:38;100122.16;;;39.37;19.69
58757;BME280;44527;47.460;19.016;2022-07-23T09:48:42;100110.06;;;39.38;20.00
58757;BME280;44527;47.460;19.016;2022-07-23T09:51:53;100113.28;;;39.21;20.46
58757;BME280;44527;47.460;19.016;2022-07-23T09:55:01;100104.34;;;39.35;20.06
58757;BME280;44527;47.460;19.016;2022-07-23T09:58:05;100112.38;;;39.64;20.21
58757;BME280;44527;47.460;19.016;2022-07-23T10:01:09;100108.72;;;39.36;19.83
58757;BME280;44527;47.460;19.016;2022-07-23T10:04:13;100104.25;;;39.21;19.27
58757;BME280;44527;47.460;19.016;2022-07-23T10:07:21;100096.84;;;39.02;19.72
58757;BME280;44527;47.460;19.016;2022-07-23T10:10:28;100104.78;;;39.04;20.20
58757;BME280;44527;47.460;19.016;2022-07-23T10:13:34;100100.00;;;39.34;20.24
58757;BME280;44527;47.460;19.016;2022-07-23T10:17:01;100094.03;;;39.07;20.37
58757;BME280;44527;47.460;19.016;2022-07-23T10:20:04;100091.97;;;39.37;19.80
58757;BME280;44527;47.460;19.016;2022-07-23T10:26:38;100078.72;;;39.58;20.20
58757;BME280;44527;47.460;19.016;2022-07-23T10:36:15;100087.41;;;39.79;19.30
58757;BME280;44527;47.460;19.016;2022-07-23T10:39:24;100087.84;;;40.00;18.74
58757;BME280;44527;47.460;19.016;2022-07-23T10:42:33;100083.59;;;40.08;19.20
58757;BME280;44527;47.460;19.016;2022-07-23T10:45:36;100068.63;;;40.14;18.82
58757;BME280;44527;47.460;19.016;2022-07-23T10:48:42;100059.88;;;39.98;18.94
58757;BME280;44527;47.460;19.016;2022-07-23T10:58:46;100048.62;;;39.15;20.23
58757;BME280;44527;47.460;19.016;2022-07-23T11:01:49;100047.81;;;39.15;20.12
58757;BME280;44527;47.460;19.016;2022-07-23T11:04:53;100045.50;;;39.41;19.72
58757;BME280;44527;47.460;19.016;2022-07-23T11:11:13;100036.59;;;39.63;19.10
58757;BME280;44527;47.460;19.016;2022-07-23T11:24:50;100031.84;;;39.36;17.40
58757;BME280;44527;47.460;19.016;2022-07-23T11:27:53;100032.16;;;39.34;17.51
58757;BME280;44527;47.460;19.016;2022-07-23T11:30:57;100020.81;;;39.03;17.42
58757;BME280;44527;47.460;19.016;2022-07-23T11:37:40;100024.38;;;39.22;17.63
58757;BME280;44527;47.460;19.016;2022-07-23T11:40:51;100016.44;;;39.21;17.83
58757;BME280;44527;47.460;19.016;2022-07-23T11:43:53;100022.66;;;39.26;18.07
58757;BME280;44527;47.460;19.016;2022-07-23T11:47:08;100008.44;;;39.71;17.85
58757;BME280;44527;47.460;19.016;2022-07-23T11:50:11;99999.00;;;39.91;18.21
58757;BME280;44527;47.460;19.016;2022-07-23T11:53:24;99996.56;;;40.03;16.41
58757;BME280;44527;47.460;19.016;2022-07-23T11:56:26;99991.91;;;40.17;17.26
58757;BME280;44527;47.460;19.016;2022-07-23T11:59:32;99982.81;;;40.31;16.55
58757;BME280;44527;47.460;19.016;2022-07-23T12:02:35;99980.38;;;40.15;16.31
58757;BME280;44527;47.460;19.016;2022-07-23T12:05:38;99981.91;;;40.35;16.69
58757;BME280;44527;47.460;19.016;2022-07-23T12:08:41;99970.50;;;40.14;16.47
58757;BME280;44527;47.460;19.016;2022-07-23T12:12:00;99963.87;;;40.15;17.19
58757;BME280;44527;47.460;19.016;2022-07-23T12:15:03;99962.97;;;40.06;16.92
58757;BME280;44527;47.460;19.016;2022-07-23T12:18:08;99960.34;;;39.87;16.75
58757;BME280;44527;47.460;19.016;2022-07-23T12:21:10;99969.19;;;39.84;17.59
58757;BME280;44527;47.460;19.016;2022-07-23T12:24:14;99956.78;;;39.73;18.12
58757;BME280;44527;47.460;19.016;2022-07-23T12:27:20;99958.09;;;39.75;17.96
58757;BME280;44527;47.460;19.016;2022-07-23T12:30:26;99954.63;;;39.97;18.22
58757;BME280;44527;47.460;19.016;2022-07-23T12:33:39;99943.16;;;39.95;17.36
58757;BME280;44527;47.460;19.016;2022-07-23T12:36:43;99941.72;;;39.98;17.43
58757;BME280;44527;47.460;19.016;2022-07-23T12:39:46;99941.00;;;39.92;17.23
58757;BME280;44527;47.460;19.016;2022-07-23T12:43:00;99937.66;;;39.95;17.30
58757;BME280;44527;47.460;19.016;2022-07-23T12:46:07;99935.53;;;39.92;17.21
58757;BME280;44527;47.460;19.016;2022-07-23T12:49:10;99928.38;;;40.05;17.02
58757;BME280;44527;47.460;19.016;2022-07-23T12:52:16;99933.37;;;40.17;16.75
58757;BME280;44527;47.460;19.016;2022-07-23T12:55:27;99923.25;;;40.12;16.94
58757;BME280;44527;47.460;19.016;2022-07-23T12:58:51;99918.69;;;40.08;16.91
58757;BME280;44527;47.460;19.016;2022-07-23T13:01:55;99917.66;;;40.04;16.54
58757;BME280;44527;47.460;19.016;2022-07-23T13:05:00;99913.06;;;39.77;17.42
58757;BME280;44527;47.460;19.016;2022-07-23T13:08:05;99917.09;;;39.93;17.73
58757;BME280;44527;47.460;19.016;2022-07-23T13:11:08;99910.25;;;39.63;18.25
58757;BME280;44527;47.460;19.016;2022-07-23T13:14:12;99910.78;;;39.37;18.73
58757;BME280;44527;47.460;19.016;2022-07-23T13:17:15;99915.88;;;39.11;18.79
58757;BME280;44527;47.460;19.016;2022-07-23T13:20:22;99901.00;;;38.47;19.44
58757;BME280;44527;47.460;19.016;2022-07-23T13:23:26;99894.81;;;38.17;20.00
58757;BME280;44527;47.460;19.016;2022-07-23T13:26:31;99893.13;;;38.21;20.04
58757;BME280;44527;47.460;19.016;2022-07-23T13:29:33;99886.84;;;38.21;20.22
58757;BME280;44527;47.460;19.016;2022-07-23T13:32:37;99888.84;;;38.53;18.99
58757;BME280;44527;47.460;19.016;2022-07-23T13:35:40;99866.47;;;38.78;19.17
58757;BME280;44527;47.460;19.016;2022-07-23T13:38:46;99866.03;;;38.90;18.70
58757;BME280;44527;47.460;19.016;2022-07-23T13:41:48;99863.94;;;39.01;18.38
58757;BME280;44527;47.460;19.016;2022-07-23T13:44:52;99863.72;;;38.97;19.01
58757;BME280;44527;47.460;19.016;2022-07-23T13:47:54;99860.88;;;39.02;18.08
58757;BME280;44527;47.460;19.016;2022-07-23T13:50:58;99851.50;;;38.90;18.04
58757;BME280;44527;47.460;19.016;2022-07-23T13:54:02;99850.50;;;38.86;18.16
58757;BME280;44527;47.460;19.016;2022-07-23T13:57:05;99855.72;;;38.49;18.29
58757;BME280;44527;47.460;19.016;2022-07-23T14:00:09;99858.00;;;38.61;18.21
58757;BME280;44527;47.460;19.016;2022-07-23T14:03:33;99851.75;;;38.74;17.92
58757;BME280;44527;47.460;19.016;2022-07-23T14:06:36;99852.75;;;38.78;17.71
58757;BME280;44527;47.460;19.016;2022-07-23T14:09:38;99847.50;;;38.82;17.03
58757;BME280;44527;47.460;19.016;2022-07-23T14:12:41;99842.63;;;38.79;17.05
58757;BME280;44527;47.460;19.016;2022-07-23T14:15:43;99842.75;;;38.88;17.51
58757;BME280;44527;47.460;19.016;2022-07-23T14:18:48;99841.44;;;38.85;17.14
58757;BME280;44527;47.460;19.016;2022-07-23T14:21:51;99832.41;;;38.66;17.31
58757;BME280;44527;47.460;19.016;2022-07-23T14:24:53;99822.25;;;38.66;17.51
58757;BME280;44527;47.460;19.016;2022-07-23T14:27:56;99815.84;;;38.57;16.93
58757;BME280;44527;47.460;19.016;2022-07-23T14:30:58;99812.00;;;38.58;17.45
58757;BME280;44527;47.460;19.016;2022-07-23T14:34:03;99811.06;;;38.11;18.57
58757;BME280;44527;47.460;19.016;2022-07-23T14:37:05;99804.53;;;37.88;18.63
58757;BME280;44527;47.460;19.016;2022-07-23T14:40:08;99795.50;;;37.87;19.06
58757;BME280;44527;47.460;19.016;2022-07-23T14:43:11;99789.50;;;37.85;18.99
58757;BME280;44527;47.460;19.016;2022-07-23T14:46:14;99782.84;;;37.91;17.44
58757;BME280;44527;47.460;19.016;2022-07-23T14:49:16;99767.00;;;37.88;17.78
58757;BME280;44527;47.460;19.016;2022-07-23T14:52:19;99776.62;;;37.67;17.85
58757;BME280;44527;47.460;19.016;2022-07-23T14:55:22;99785.44;;;37.16;18.86
58757;BME280;44527;47.460;19.016;2022-07-23T14:58:25;99783.50;;;36.92;19.16
58757;BME280;44527;47.460;19.016;2022-07-23T15:01:28;99781.88;;;36.62;19.56
58757;BME280;44527;47.460;19.016;2022-07-23T15:04:31;99781.78;;;36.38;19.59
58757;BME280;44527;47.460;19.016;2022-07-23T15:07:39;99787.84;;;36.30;19.97
58757;BME280;44527;47.460;19.016;2022-07-23T15:10:41;99784.44;;;36.14;20.27
58757;BME280;44527;47.460;19.016;2022-07-23T15:13:44;99793.00;;;35.97;21.08
58757;BME280;44527;47.460;19.016;2022-07-23T15:16:48;99791.12;;;35.87;19.94
58757;BME280;44527;47.460;19.016;2022-07-23T15:19:53;99790.31;;;35.87;20.29
58757;BME280;44527;47.460;19.016;2022-07-23T15:22:56;99806.03;;;35.61;20.43
58757;BME280;44527;47.460;19.016;2022-07-23T15:26:00;99808.75;;;35.51;20.78
58757;BME280;44527;47.460;19.016;2022-07-23T15:29:03;99801.22;;;35.27;21.21
58757;BME280;44527;47.460;19.016;2022-07-23T15:32:08;99791.97;;;35.03;21.54
58757;BME280;44527;47.460;19.016;2022-07-23T15:35:12;99795.28;;;34.84;22.02
58757;BME280;44527;47.460;19.016;2022-07-23T15:38:14;99841.94;;;34.62;25.23
58757;BME280;44527;47.460;19.016;2022-07-23T15:41:26;99836.91;;;34.08;28.45
58757;BME280;44527;47.460;19.016;2022-07-23T15:44:29;99861.25;;;33.20;30.59
58757;BME280;44527;47.460;19.016;2022-07-23T15:47:31;99868.97;;;32.41;32.30
58757;BME280;44527;47.460;19.016;2022-07-23T15:50:34;99862.88;;;32.02;33.22
58757;BME280;44527;47.460;19.016;2022-07-23T15:53:37;99858.22;;;31.58;34.15
58757;BME280;44527;47.460;19.016;2022-07-23T15:56:39;99859.03;;;31.37;34.50
58757;BME280;44527;47.460;19.016;2022-07-23T15:59:44;99860.50;;;31.28;34.58
58757;BME280;44527;47.460;19.016;2022-07-23T16:02:48;99879.09;;;31.02;35.02
58757;BME280;44527;47.460;19.016;2022-07-23T16:05:53;99875.25;;;30.98;34.72
58757;BME280;44527;47.460;19.016;2022-07-23T16:08:56;99884.91;;;30.77;34.75
58757;BME280;44527;47.460;19.016;2022-07-23T16:12:05;99895.41;;;30.74;34.79
58757;BME280;44527;47.460;19.016;2022-07-23T16:15:07;99934.38;;;30.73;34.14
58757;BME280;44527;47.460;19.016;2022-07-23T16:18:10;99951.59;;;30.66;34.81
58757;BME280;44527;47.460;19.016;2022-07-23T16:21:12;99967.38;;;30.41;35.85
58757;BME280;44527;47.460;19.016;2022-07-23T16:24:17;99947.22;;;29.96;37.76
58757;BME280;44527;47.460;19.016;2022-07-23T16:27:20;99958.75;;;29.57;38.92
58757;BME280;44527;47.460;19.016;2022-07-23T16:30:22;99943.84;;;29.42;39.80
58757;BME280;44527;47.460;19.016;2022-07-23T16:33:24;99956.84;;;29.22;40.83